La Molina, Catalunya

latitud = 42° 19' 57''N | longitud = 001° 56' 22''E
1703 metros sobre el nivel del mar | datos mensuales

Fecha, hora, temperatura, viento dirección y velocidad, humedad y presión.

  • 23-04-2018 10:00:00 | 11.20°C | Sudeste |3.00 km/h | 55.00% | 834.50 hPa
  • 23-04-2018 09:00:00 | 9.20°C | Sudeste |5.00 km/h | 60.00% | 834.40 hPa
  • 23-04-2018 08:00:00 | 7.60°C | Sudeste |6.00 km/h | 67.00% | 834.20 hPa
  • 23-04-2018 07:00:00 | 7.00°C | Sudeste |4.00 km/h | 66.00% | 833.80 hPa
  • 23-04-2018 06:00:00 | 7.20°C | Sudeste |6.00 km/h | 66.00% | 833.60 hPa
  • 23-04-2018 05:00:00 | 7.60°C | Sudeste |4.00 km/h | 65.00% | 833.60 hPa
  • 23-04-2018 04:00:00 | 6.90°C | Sudeste |5.00 km/h | 68.00% | 833.70 hPa
  • 23-04-2018 03:00:00 | 6.80°C | Sudeste |7.00 km/h | 71.00% | 833.90 hPa
  • 23-04-2018 02:00:00 | 7.10°C | Sudeste |3.00 km/h | 74.00% | 834.30 hPa
  • 23-04-2018 01:00:00 | 7.20°C | Sudeste |8.00 km/h | 73.00% | 834.60 hPa
  • 23-04-2018 00:00:00 | 8.00°C | Sudeste |5.00 km/h | 67.00% | 834.40 hPa
  • 22-04-2018 23:00:00 | 8.40°C | Sudeste |6.00 km/h | 67.00% | 834.00 hPa
  • 22-04-2018 22:00:00 | 9.00°C | Sur |5.00 km/h | 63.00% | 833.70 hPa
  • 22-04-2018 21:00:00 | 10.30°C | Sur |6.00 km/h | 58.00% | 833.10 hPa
  • 22-04-2018 20:00:00 | 13.30°C | Sur |8.00 km/h | 52.00% | 832.40 hPa
  • 22-04-2018 19:00:00 | 14.00°C | Sur |15.00 km/h | 55.00% | 832.50 hPa
  • 22-04-2018 18:00:00 | 14.80°C | Sudeste |12.00 km/h | 51.00% | 832.20 hPa
  • 22-04-2018 17:00:00 | 15.80°C | Sudeste |14.00 km/h | 44.00% | 832.30 hPa
  • 22-04-2018 16:00:00 | 17.20°C | Sudoeste |8.00 km/h | 42.00% | 832.60 hPa
  • 22-04-2018 15:00:00 | 18.40°C | Sudoeste |6.00 km/h | 35.00% | 832.80 hPa
  • 22-04-2018 14:00:00 | 17.20°C | Norte |5.00 km/h | 36.00% | 833.00 hPa
  • 22-04-2018 13:00:00 | 15.30°C | Noroeste |3.00 km/h | 48.00% | 833.20 hPa
  • 22-04-2018 12:00:00 | 12.80°C | Sudeste |2.00 km/h | 54.00% | 833.20 hPa
  • 22-04-2018 11:00:00 | 12.70°C | Sudeste |3.00 km/h | 51.00% | 833.00 hPa